Return to the overview of this dataset or to the list of all FOR816 datasets.


Value filter for entity: Photosynthesis data Vismia 1243 shade 14/10/2014(id: 1143) of dataset: Photosynthesis dataset of Vismia_1243_shade_leaf_A (Tower Trees ECSF, lower platform), Date: 14/10/2014 (dsid: 1580)

Select attribute to work with:



Order by

Aggregate by date/time

on attribute:

Draw graph of subset

    x     y1     y2  
     
datetime (Date and Time)
PhotoRate (Photosynthesis rate)
LeafCond (Leaf Conductance)
LeafTrans (Leaf transpiration)
temp_leaf (Leaf Temperature)
relh_leaf (Relative humidity of the leaf sample, measured by porometry)
PARi (Photosynthetic active radiation)
ParO (Photosynthetically active radiation)
VpdL (Vapor pressure deficit based on Leaf temp)

Results:

page: 1 / 6 , page size: , max results: 283

datetime PhotoRate LeafCond LeafTrans temp_leaf relh_leaf PARi ParO VpdL TreeID Tree_species
2014-10-14 18:01:50 -0.713 0.047 0.355 19.22 71.1 4.01 1.25 0.6 1243 "Vismia tomentosa"
2014-10-14 18:06:51 -0.614 0.041 0.311 19.13 71.23 3.91 1.17 0.6 1243 "Vismia tomentosa"
2014-10-14 18:11:51 -0.64 0.033 0.241 18.96 72.28 3.31 0.19 0.57 1243 "Vismia tomentosa"
2014-10-14 18:16:51 -0.55 0.028 0.195 18.68 73.57 3.16 0.14 0.54 1243 "Vismia tomentosa"
2014-10-14 18:21:52 -0.541 0.027 0.176 18.52 74.14 3.21 0.19 0.52 1243 "Vismia tomentosa"
2014-10-14 18:26:52 -0.469 0.023 0.152 18.41 74.55 3.19 0.13 0.51 1243 "Vismia tomentosa"
2014-10-14 18:31:52 -0.42 0.024 0.16 18.45 73.79 3.19 0.15 0.53 1243 "Vismia tomentosa"
2014-10-14 18:36:53 -0.401 0.023 0.156 18.5 73.96 3.17 0.16 0.53 1243 "Vismia tomentosa"
2014-10-14 18:41:53 -0.339 0.023 0.145 18.28 73.96 3.11 0.11 0.5 1243 "Vismia tomentosa"
2014-10-14 18:46:53 -0.292 0.021 0.144 18.54 74.0 3.14 0.09 0.53 1243 "Vismia tomentosa"
2014-10-14 18:51:53 -0.456 0.02 0.135 18.54 74.01 3.15 0.28 0.53 1243 "Vismia tomentosa"
2014-10-14 18:56:54 -0.44 0.02 0.134 18.53 74.14 3.17 0.22 0.53 1243 "Vismia tomentosa"
2014-10-14 19:01:54 -0.172 0.019 0.13 18.46 74.0 3.13 0.09 0.53 1243 "Vismia tomentosa"
2014-10-14 19:06:54 -0.421 0.018 0.12 18.41 74.28 3.18 0.1 0.52 1243 "Vismia tomentosa"
2014-10-14 19:11:55 -0.373 0.017 0.108 18.22 74.96 3.21 0.08 0.5 1243 "Vismia tomentosa"
2014-10-14 19:16:55 -0.444 0.015 0.099 18.31 74.45 3.16 0.1 0.52 1243 "Vismia tomentosa"
2014-10-14 19:21:55 -0.426 0.01 0.06 18.04 75.15 3.14 0.15 0.49 1243 "Vismia tomentosa"
2014-10-14 19:26:56 -0.296 0.009 0.053 17.78 76.95 3.2 0.11 0.44 1243 "Vismia tomentosa"
2014-10-14 19:31:56 -0.623 0.015 0.074 17.46 78.96 3.2 0.15 0.39 1243 "Vismia tomentosa"
2014-10-14 19:36:56 -0.496 0.026 0.121 17.27 79.69 3.15 0.11 0.37 1243 "Vismia tomentosa"
2014-10-14 19:41:56 -0.486 0.033 0.15 17.18 80.28 3.08 0.15 0.36 1243 "Vismia tomentosa"
2014-10-14 19:46:57 -0.45 0.043 0.19 17.15 80.66 3.22 0.13 0.35 1243 "Vismia tomentosa"
2014-10-14 19:51:57 -0.514 0.055 0.247 17.18 80.15 3.15 0.1 0.36 1243 "Vismia tomentosa"
2014-10-14 19:56:57 -0.469 0.056 0.243 17.07 80.25 3.15 0.2 0.35 1243 "Vismia tomentosa"
2014-10-14 20:01:58 -0.526 0.062 0.269 17.06 80.48 3.21 0.12 0.35 1243 "Vismia tomentosa"
2014-10-14 20:06:58 -0.553 0.067 0.299 17.12 79.81 3.21 0.11 0.36 1243 "Vismia tomentosa"
2014-10-14 20:11:58 -0.463 0.068 0.293 17.02 80.44 3.18 0.07 0.35 1243 "Vismia tomentosa"
2014-10-14 20:16:59 -0.322 0.061 0.261 16.99 80.55 3.18 0.26 0.34 1243 "Vismia tomentosa"
2014-10-14 20:21:59 -0.498 0.068 0.297 17.1 80.35 3.19 0.06 0.35 1243 "Vismia tomentosa"
2014-10-14 20:26:59 -0.38 0.067 0.298 17.15 79.83 3.19 0.17 0.36 1243 "Vismia tomentosa"
2014-10-14 20:32:00 -0.316 0.067 0.308 17.32 79.48 3.17 0.14 0.37 1243 "Vismia tomentosa"
2014-10-14 20:37:00 -0.522 0.065 0.287 17.13 79.99 3.17 0.14 0.36 1243 "Vismia tomentosa"
2014-10-14 20:42:00 -0.479 0.066 0.281 17.03 80.4 3.18 0.08 0.34 1243 "Vismia tomentosa"
2014-10-14 20:47:00 -0.621 0.071 0.306 17.14 80.51 3.16 0.08 0.35 1243 "Vismia tomentosa"
2014-10-14 20:52:01 -0.583 0.067 0.276 17.0 80.96 3.18 0.08 0.33 1243 "Vismia tomentosa"
2014-10-14 20:57:01 -0.805 0.068 0.274 16.97 81.48 3.2 0.18 0.32 1243 "Vismia tomentosa"
2014-10-14 21:02:01 -0.519 0.072 0.291 16.94 81.11 3.14 0.34 0.33 1243 "Vismia tomentosa"
2014-10-14 21:07:02 -0.494 0.066 0.27 16.87 81.08 3.19 0.2 0.33 1243 "Vismia tomentosa"
2014-10-14 21:12:02 -0.483 0.074 0.306 16.93 80.89 3.13 0.16 0.33 1243 "Vismia tomentosa"
2014-10-14 21:17:02 -0.572 0.067 0.272 16.86 80.99 3.22 0.12 0.33 1243 "Vismia tomentosa"
2014-10-14 21:22:03 -0.508 0.073 0.303 16.94 80.96 3.2 0.17 0.33 1243 "Vismia tomentosa"
2014-10-14 21:27:03 -0.448 0.074 0.323 16.99 80.14 3.14 0.13 0.35 1243 "Vismia tomentosa"
2014-10-14 21:32:03 -0.403 0.071 0.307 16.93 80.19 3.2 0.09 0.35 1243 "Vismia tomentosa"
2014-10-14 21:37:03 -0.491 0.067 0.274 16.83 80.86 3.17 0.11 0.33 1243 "Vismia tomentosa"
2014-10-14 21:42:04 -0.37 0.067 0.268 16.79 81.39 3.22 0.08 0.32 1243 "Vismia tomentosa"
2014-10-14 21:47:04 -0.465 0.072 0.277 16.76 81.94 3.17 0.19 0.31 1243 "Vismia tomentosa"
2014-10-14 21:52:04 -0.337 0.068 0.261 16.66 82.03 3.18 0.23 0.31 1243 "Vismia tomentosa"
2014-10-14 21:57:05 -0.356 0.072 0.266 16.56 82.41 3.18 0.13 0.3 1243 "Vismia tomentosa"
2014-10-14 22:02:05 -0.331 0.077 0.291 16.64 82.23 3.22 0.2 0.3 1243 "Vismia tomentosa"
2014-10-14 22:07:05 -0.35 0.066 0.243 16.59 82.73 3.19 0.14 0.29 1243 "Vismia tomentosa"

page: 1 / 6 , max results: 283


Return to the overview of this dataset or to the list of all FOR816 datasets.



Quick search

  • Publications:
  • Datasets: